Airfield :
LOGIN :

Register | Disclaimer

   EN    FR    IT 

 










Legend :    VFR   Marginal VFR   IFR   Intensive IFR   Very Intensive IFR
Visi :
Ceiling :
>= 8 km
>= 3000ft
5 to 8 km
1000 to 3000 ft
1500m to 5 km
500 to 1000 ft
800 to 1500m
200 to 500 ft
< 800m
< 200 ft
Symbols :   Thunderstorms  Fog  Heavy snow  Heavy precipitations  Wind > 20 kt
SIGMETs :     Misc.  Thunderstorms  Icing  Turbulence  Mountain Waves  Volcanic Ashes






- Airport Elevation : 616 ft
- IATA code : PUF


LFBP - Pau

CURRENT METAR :
  • 032000Z AUTO 29007KT 9999 BKN036 OVC042 20/14 Q1019 NOSIG

EXPIRED METARs :
  • 031930Z AUTO 26006KT 9999 BKN037 BKN052 OVC074 20/15 Q1018 NOSIG
  • 031900Z AUTO 27005KT 9999 FEW054 OVC070 20/15 Q1018 TEMPO BKN035TCU
  • 031830Z AUTO 28007KT 9999 OVC070 20/14 Q1018 TEMPO BKN035TCU
  • 031800Z AUTO 27007KT 9999 OVC070 21/14 Q1018 TEMPO BKN035TCU

TAF TAF LFBP
Valid from the 03 at 18:00 until the 04 at 18:00 UTC


031700Z 0318/0418 31010KT 9999 SCT040 SCT060
PROB30
TEMPO 0318/0320 -SHRA BKN035TCU
BECMG 0400/0402 VRB02KT
PROB30
TEMPO 0403/0407 3000 BR BKN010



MET'MAP, your aeronautical weather chart ! - Copyright ORBIFLY December 2007 - Disclaimer

ORBIFLY MET'MAP TEAM :

Programming & Development : Alexandra Zaïnal
Concept & original design : Baudouin d'Aumeries
Assistance for programming : Marc-Olivier Méhu
Technical & hardware support : Manuel Goepfert

Contact : metmap@orbifly.com




SOURCES & CREDITS :

   NOAA